Coolin, ID (83821)

10:07 AM PDT on August 27, 2014 (GMT -0700)
Priest Lake | Change Station
CLOSE
Current Station
Personal Weather Station
Location: Coolin, ID
Elevation: 2533 ft
Nearby Weather Stations

Elev 2533 ft 48.48 °N, 116.85 °W | Updated 9 seconds ago

Clear
Clear
74.5 °F
Feels Like 77 °F
N
0.0
Wind Variable Wind from South
Gusts 0.0 mph

Today
High -- | Low -- °F
--% Chance of Precip.
Yesterday
High -- | Low -- °F
Precip. -- in
5:57 AM 7:38 PM
Waxing Crescent, 4% visible
Pressure 30.08 in
Visibility 10.0 miles
Clouds Clear
Heat Index 77 °F
Dew Point 54 °F
Humidity 48%
Rainfall 0.00 in
Snow Depth Not available.
UV 2.0 out of 12
Pollen 7.70 out of 12
Air Quality Not available.
Flu Activity Not available.
METAR KSZT 271655Z AUTO 00000KT 10SM CLR 20/12 A3008 RMK AO2

More Conditions Fewer Conditions

Pressure 30.08 in
Visibility 10.0 miles
Clouds Clear
Heat Index 77 °F
Dew Point 54 °F
Humidity 48%
Rainfall 0.00 in
Snow Depth Not available.
UV 2.0 out of 12
Pollen 7.70 out of 12
Air Quality Not available.
Flu Activity Not available.
METAR KSZT 271655Z AUTO 00000KT 10SM CLR 20/12 A3008 RMK AO2

More Conditions Fewer Conditions

10-Day Weather Forecast

Almanac

Astronomy

Aug. 27, 2014 Rise Set
Actual Time 5:57 AM PDT 7:38 PM PDT
Civil Twilight 5:24 AM PDT 8:11 PM PDT
Nautical Twilight 4:44 AM PDT 8:52 PM PDT
Astronomical Twilight 3:59 AM PDT 9:36 PM PDT
Moon 8:11 AM PDT 8:18 PM PDT
Length of Visible Light 14h 47m
Length of Day
13h 41m
Tomorrow will be 3m 23s shorter.
Waxing Crescent, 4% of the Moon is Illuminated
Today
Waxing Crescent
Sep 2
First Quarter
Sep 8
Full
Sep 15
Last Quarter
Sep 24
New

Today's Extremes

State Highs State Lows

Community

WunderPhotos

Upload Photos

1,747,727 photos uploaded!

Nearby

Snow Depth

Station Depth Elevation
Myrtle Creek 0 in 3520 ft
Bear Mountain 0 in 5400 ft
Mosquito Ridge 0 in 5200 ft
Humboldt Gulch 2 in 4250 ft
Lookout 0 in 5140 ft

Earthquake Activity

City Distance Mag. Time & Date
No recent earthquake activity has been reported nearby.
Minimum magnitude displayed is 2.5.

Coastal Water Temperatures

Place Temperature
No Stations Reporting

Nearby Weather Stations